Time;durP1;ratioP1;P1;durP2;ratioP2;P2;SDS_P1;SDS_P2;PMS_P1;PMS_P2;Temp;Humidity;BMP_temperature;BMP_pressure;BME280_temperature;BME280_humidity;BME280_pressure;Samples;Min_cycle;Max_cycle;Signal;HPM_P1;HPM_P2
2022/12/05 00:02:04;;;;;;;24.17;14.03;;;;;;;8.50;57.64;98572.19;6975546;28;20314;-80
2022/12/05 00:05:27;;;;;;;23.47;13.83;;;;;;;8.75;56.52;98576.03;6975576;28;20210;-81
2022/12/05 00:08:49;;;;;;;22.40;13.73;;;;;;;8.71;56.92;98583.69;6975755;28;20318;-80
2022/12/05 00:12:10;;;;;;;21.57;13.67;;;;;;;8.76;56.21;98569.63;6975897;28;20234;-80
2022/12/05 00:15:32;;;;;;;22.87;13.97;;;;;;;8.94;56.06;98603.03;6975268;28;20289;-81
2022/12/05 00:18:54;;;;;;;24.33;14.33;;;;;;;8.79;56.25;98596.13;6975628;28;20688;-80
2022/12/05 00:22:16;;;;;;;19.07;12.73;;;;;;;9.15;55.70;98589.47;6975303;28;20261;-80
2022/12/05 00:25:38;;;;;;;17.47;12.83;;;;;;;9.24;54.52;98585.56;6974262;28;20302;-80
2022/12/05 00:29:00;;;;;;;20.43;13.17;;;;;;;8.75;55.43;98566.13;6974464;28;20322;-80
2022/12/05 00:32:21;;;;;;;23.17;13.67;;;;;;;8.93;55.11;98570.97;6982224;28;20260;-80
2022/12/05 00:35:43;;;;;;;23.77;13.67;;;;;;;8.33;56.71;98587.81;6991623;28;20209;-80
2022/12/05 00:39:08;;;;;;;22.27;13.80;;;;;;;7.91;58.30;98581.66;6976802;28;20294;-80
2022/12/05 00:42:29;;;;;;;20.93;12.97;;;;;;;8.32;58.14;98582.63;6975591;28;20262;-80
2022/12/05 00:45:51;;;;;;;21.30;12.97;;;;;;;8.70;56.77;98571.28;6974680;28;20340;-80
2022/12/05 00:49:12;;;;;;;19.20;13.23;;;;;;;8.46;56.50;98546.75;6975095;28;20277;-80
2022/12/05 00:52:34;;;;;;;18.17;12.83;;;;;;;8.62;56.10;98584.03;6975436;28;20240;-80
2022/12/05 00:55:57;;;;;;;21.60;13.80;;;;;;;8.34;57.36;98572.50;6974716;28;20236;-80
2022/12/05 00:59:19;;;;;;;21.67;12.93;;;;;;;8.47;57.23;98591.38;6974449;28;20369;-80
2022/12/05 01:02:41;;;;;;;19.57;12.97;;;;;;;8.52;57.27;98573.66;6975260;28;20247;-80
2022/12/05 01:06:04;;;;;;;19.70;13.17;;;;;;;8.76;56.72;98602.72;6998106;28;20381;-80
2022/12/05 01:09:26;;;;;;;21.10;12.60;;;;;;;8.77;56.70;98599.00;6979914;28;20605;-80
2022/12/05 01:12:49;;;;;;;21.10;13.17;;;;;;;8.93;56.24;98621.00;6976188;28;20203;-80
2022/12/05 01:16:14;;;;;;;19.57;14.43;;;;;;;8.74;56.64;98620.09;6975962;28;20293;-79
2022/12/05 01:19:35;;;;;;;20.87;13.00;;;;;;;8.60;55.90;98626.41;6975858;28;20256;-80
2022/12/05 01:22:57;;;;;;;15.10;11.17;;;;;;;8.71;55.41;98607.06;6975847;28;20775;-80
2022/12/05 01:26:23;;;;;;;19.57;13.00;;;;;;;8.95;55.60;98646.91;6972653;28;20249;-79
2022/12/05 01:29:46;;;;;;;20.93;14.07;;;;;;;9.02;54.77;98645.88;6974700;28;20227;-80
2022/12/05 01:33:08;;;;;;;21.50;13.67;;;;;;;8.88;55.10;98654.06;6974652;28;20235;-80
2022/12/05 01:36:30;;;;;;;19.10;12.43;;;;;;;9.02;55.33;98664.69;6973463;28;20383;-78
2022/12/05 01:39:51;;;;;;;18.73;12.83;;;;;;;8.72;55.23;98662.47;6978659;28;20232;-79
2022/12/05 01:43:15;;;;;;;18.23;11.63;;;;;;;8.90;55.47;98658.22;6979150;28;20818;-79
2022/12/05 01:46:39;;;;;;;15.37;11.03;;;;;;;9.07;54.82;98646.13;6978236;28;20206;-80
2022/12/05 01:50:01;;;;;;;17.67;12.57;;;;;;;8.81;54.95;98627.16;6978605;28;20639;-80
2022/12/05 01:53:23;;;;;;;18.03;11.73;;;;;;;8.93;55.27;98657.00;6978762;28;20264;-79
2022/12/05 01:56:48;;;;;;;20.67;13.70;;;;;;;8.81;55.16;98631.69;6978313;28;20665;-80
2022/12/05 02:00:12;;;;;;;24.37;15.37;;;;;;;8.62;56.29;98637.78;6979097;28;20207;-80
2022/12/05 02:03:35;;;;;;;17.23;11.50;;;;;;;9.03;54.96;98651.06;6978754;28;20294;-80
2022/12/05 02:06:57;;;;;;;19.73;13.33;;;;;;;9.01;55.23;98657.66;6977664;28;20666;-80
2022/12/05 02:10:19;;;;;;;19.13;12.47;;;;;;;9.04;54.85;98659.97;6978709;28;20299;-80
2022/12/05 02:13:52;;;;;;;17.83;11.67;;;;;;;8.56;55.96;98654.69;6978456;28;20800;-80
2022/12/05 02:17:18;;;;;;;16.90;10.90;;;;;;;8.83;55.54;98641.22;6977510;28;20300;-80
2022/12/05 02:20:49;;;;;;;17.67;11.33;;;;;;;8.84;55.61;98642.88;6977677;28;20298;-80
2022/12/05 02:24:44;;;;;;;16.07;10.90;;;;;;;8.97;54.79;98664.50;6978131;28;20292;-80
2022/12/05 02:28:37;;;;;;;16.47;10.60;;;;;;;9.04;55.15;98670.72;6974760;28;20256;-80
2022/12/05 02:32:05;;;;;;;16.23;10.63;;;;;;;9.09;54.43;98671.78;6978115;28;20226;-80
2022/12/05 02:35:42;;;;;;;17.70;11.73;;;;;;;9.01;55.25;98683.75;6977641;28;20230;-80
2022/12/05 02:39:10;;;;;;;19.20;12.50;;;;;;;8.95;55.50;98684.53;6977531;28;20321;-80
2022/12/05 02:42:41;;;;;;;15.43;10.30;;;;;;;9.04;55.76;98693.06;6977612;28;20212;-80
2022/12/05 02:46:07;;;;;;;16.43;10.77;;;;;;;8.86;56.48;98710.75;6976669;28;20281;-80
2022/12/05 02:49:32;;;;;;;16.93;11.53;;;;;;;8.34;57.07;98712.16;6975898;28;20315;-80
2022/12/05 02:52:57;;;;;;;17.83;11.47;;;;;;;8.31;57.81;98709.88;6977314;28;20253;-80
2022/12/05 02:56:20;;;;;;;15.97;10.97;;;;;;;8.34;57.13;98691.53;6976690;28;20213;-80
2022/12/05 02:59:41;;;;;;;21.03;11.83;;;;;;;8.60;56.95;98709.72;6977175;28;20258;-80
2022/12/05 03:03:12;;;;;;;19.23;12.07;;;;;;;8.64;56.31;98694.84;6976967;28;20227;-80
2022/12/05 03:06:39;;;;;;;18.73;12.33;;;;;;;8.89;56.00;98690.69;6976303;28;20230;-80
2022/12/05 03:10:03;;;;;;;22.00;12.37;;;;;;;8.98;56.02;98703.78;6976715;28;20248;-80
2022/12/05 03:13:27;;;;;;;19.93;12.13;;;;;;;8.89;57.00;98707.66;6977102;28;20210;-80
2022/12/05 03:16:51;;;;;;;21.87;13.20;;;;;;;8.21;58.01;98699.47;6976142;28;20207;-80
2022/12/05 03:20:18;;;;;;;23.17;13.03;;;;;;;8.51;58.09;98700.13;6977240;28;20740;-80
2022/12/05 03:23:44;;;;;;;21.10;12.57;;;;;;;7.87;59.15;98696.63;6976880;28;20271;-79
2022/12/05 03:27:10;;;;;;;20.10;12.53;;;;;;;8.01;59.37;98692.22;6975656;28;20236;-80
2022/12/05 03:30:34;;;;;;;20.40;13.13;;;;;;;8.38;59.64;98700.03;6978916;28;20561;-80
2022/12/05 03:33:58;;;;;;;19.20;12.43;;;;;;;8.12;58.60;98683.63;6995727;28;20604;-80
2022/12/05 03:37:25;;;;;;;21.50;13.17;;;;;;;8.37;59.15;98703.75;6983344;28;20393;-80
2022/12/05 03:40:50;;;;;;;22.40;12.97;;;;;;;8.46;58.85;98684.59;6976381;28;20219;-80
2022/12/05 03:44:15;;;;;;;22.00;12.90;;;;;;;8.17;58.91;98703.53;6975836;28;20304;-80
2022/12/05 03:47:42;;;;;;;24.27;13.37;;;;;;;7.57;61.29;98704.94;6975717;28;20257;-80
2022/12/05 03:51:07;;;;;;;21.33;12.73;;;;;;;8.01;60.21;98702.94;6976642;28;20226;-80
2022/12/05 03:54:32;;;;;;;20.17;12.20;;;;;;;7.85;60.73;98687.09;6976342;28;20238;-79
2022/12/05 03:57:58;;;;;;;21.37;13.07;;;;;;;8.32;60.19;98714.22;6975705;28;20266;-80
2022/12/05 04:01:22;;;;;;;21.23;12.77;;;;;;;8.81;58.34;98704.28;6975395;28;20288;-80
2022/12/05 04:04:47;;;;;;;19.40;12.33;;;;;;;9.07;57.85;98706.13;6975668;28;20262;-80
2022/12/05 04:08:12;;;;;;;17.30;12.00;;;;;;;9.18;57.07;98699.34;6976027;28;20787;-80
2022/12/05 04:11:36;;;;;;;19.93;11.77;;;;;;;9.15;56.81;98702.44;6975574;28;20295;-80
2022/12/05 04:15:01;;;;;;;17.83;11.17;;;;;;;8.67;58.04;98694.47;6974881;28;20208;-80
2022/12/05 04:18:24;;;;;;;20.30;12.00;;;;;;;8.41;58.96;98684.34;6976392;28;20253;-80
2022/12/05 04:21:47;;;;;;;19.57;12.63;;;;;;;8.81;58.21;98691.69;6982403;28;20205;-80
2022/12/05 04:28:52;;;;;;;20.03;12.20;;;;;;;9.18;57.28;98699.34;6983300;28;20229;-80
2022/12/05 04:32:14;;;;;;;20.30;12.10;;;;;;;8.71;57.46;98634.75;6984047;28;20222;-81
2022/12/05 04:35:40;;;;;;;18.77;12.00;;;;;;;8.73;58.11;98699.06;6984183;28;20223;-80
2022/12/05 04:39:04;;;;;;;17.80;11.10;;;;;;;8.99;58.26;98687.44;6988697;28;20231;-80
2022/12/05 04:42:31;;;;;;;19.93;12.27;;;;;;;9.26;57.49;98724.22;6986362;28;20732;-80
2022/12/05 04:45:54;;;;;;;24.17;13.20;;;;;;;9.52;56.27;98718.16;6985630;28;20312;-81
2022/12/05 04:49:19;;;;;;;21.00;11.97;;;;;;;9.41;56.50;98714.19;6985630;28;20231;-81
2022/12/05 04:52:45;;;;;;;22.63;12.90;;;;;;;9.46;56.21;98700.91;6985605;28;20204;-80
2022/12/05 04:56:08;;;;;;;21.67;12.20;;;;;;;9.45;56.51;98718.09;6984836;28;20217;-80
2022/12/05 04:59:30;;;;;;;15.50;11.13;;;;;;;9.25;56.61;98729.78;6984407;28;20224;-81
2022/12/05 05:02:56;;;;;;;23.03;12.60;;;;;;;9.06;57.83;98733.19;6984634;28;20265;-80
2022/12/05 05:06:19;;;;;;;21.77;13.13;;;;;;;8.39;58.35;98651.47;6983618;28;20243;-80
2022/12/05 05:09:41;;;;;;;18.20;12.00;;;;;;;9.20;57.78;98721.47;6984163;28;20222;-80
2022/12/05 05:13:02;;;;;;;20.20;12.63;;;;;;;9.36;57.70;98734.63;6984647;28;20227;-81
2022/12/05 05:16:26;;;;;;;17.47;11.73;;;;;;;9.39;56.60;98720.78;6985651;28;20212;-80
2022/12/05 05:19:48;;;;;;;17.67;12.03;;;;;;;9.37;56.54;98742.50;6986507;28;20376;-80
2022/12/05 05:23:11;;;;;;;17.23;11.43;;;;;;;9.35;56.78;98744.56;6988324;28;20248;-80
2022/12/05 05:26:34;;;;;;;17.13;11.93;;;;;;;9.33;56.69;98768.13;6985163;28;20242;-80
2022/12/05 05:29:56;;;;;;;18.63;11.07;;;;;;;9.36;56.62;98761.53;6985557;28;20223;-80
2022/12/05 05:33:17;;;;;;;20.07;12.57;;;;;;;9.19;57.36;98754.78;6985481;28;20204;-80
2022/12/05 05:36:39;;;;;;;21.30;11.90;;;;;;;9.30;57.30;98759.63;6984744;28;20235;-80
2022/12/05 05:40:02;;;;;;;18.73;11.80;;;;;;;9.12;57.36;98732.41;6982553;28;20243;-80
2022/12/05 05:43:23;;;;;;;20.10;11.07;;;;;;;9.42;57.40;98774.19;6987203;28;20235;-81
2022/12/05 05:46:45;;;;;;;19.50;12.57;;;;;;;9.08;57.71;98742.75;6995704;28;20328;-80
2022/12/05 05:50:08;;;;;;;21.47;13.30;;;;;;;9.40;58.02;98787.81;6991479;28;20696;-78
2022/12/05 05:53:30;;;;;;;19.90;12.53;;;;;;;8.95;58.44;98771.38;6997415;28;20229;-79
2022/12/05 05:57:27;;;;;;;21.50;13.00;;;;;;;9.21;58.84;98779.66;6998409;28;20195;-88
2022/12/05 06:05:10;;;;;;;19.67;13.03;;;;;;;9.45;57.92;98763.03;7009248;28;20227;-85
2022/12/05 06:08:33;;;;;;;21.43;12.57;;;;;;;9.41;57.38;98753.69;7009472;28;20713;-80
2022/12/05 06:11:54;;;;;;;18.73;12.70;;;;;;;9.16;58.61;98772.16;7006595;28;20268;-79
2022/12/05 06:15:17;;;;;;;20.10;12.23;;;;;;;9.08;58.97;98771.47;6980501;28;20287;-80
2022/12/05 06:18:39;;;;;;;19.33;12.43;;;;;;;9.07;59.58;98776.03;6978845;28;20252;-80
2022/12/05 06:22:00;;;;;;;23.10;13.27;;;;;;;8.94;59.84;98777.78;6980345;28;20236;-80
2022/12/05 06:25:22;;;;;;;25.47;14.30;;;;;;;9.23;58.51;98773.06;6979689;28;20360;-79
2022/12/05 06:28:43;;;;;;;23.63;13.47;;;;;;;8.78;59.07;98766.50;6981669;28;20232;-80
2022/12/05 06:32:06;;;;;;;21.93;12.87;;;;;;;9.29;58.73;98785.72;6988880;28;20231;-80
2022/12/05 06:35:28;;;;;;;21.47;13.30;;;;;;;9.29;58.14;98768.72;6995343;28;20204;-80
2022/12/05 06:38:49;;;;;;;22.37;14.00;;;;;;;9.42;58.10;98784.94;6980186;28;20253;-80
2022/12/05 06:42:11;;;;;;;20.57;12.73;;;;;;;9.52;57.29;98798.88;6988273;28;20227;-80
2022/12/05 06:45:33;;;;;;;19.67;13.23;;;;;;;9.68;57.06;98812.03;7004821;28;20231;-80
2022/12/05 06:48:57;;;;;;;22.90;14.13;;;;;;;9.40;57.54;98776.25;7005654;28;20303;-80
2022/12/05 06:52:18;;;;;;;22.07;12.83;;;;;;;9.62;57.25;98799.34;7005019;28;20303;-80
2022/12/05 06:55:40;;;;;;;26.10;13.73;;;;;;;9.34;57.95;98818.22;7004674;28;20744;-80
2022/12/05 06:59:01;;;;;;;19.17;11.87;;;;;;;8.61;58.99;98790.13;7004799;28;20262;-80
2022/12/05 07:02:23;;;;;;;23.17;13.70;;;;;;;8.66;60.08;98811.06;7005294;28;20207;-80
2022/12/05 07:05:46;;;;;;;23.40;14.23;;;;;;;8.48;60.05;98776.56;7006926;28;20615;-80
2022/12/05 07:09:07;;;;;;;18.63;12.23;;;;;;;9.61;57.41;98832.66;7005011;28;20268;-81
2022/12/05 07:12:29;;;;;;;23.47;13.43;;;;;;;9.55;57.78;98842.38;7006445;28;20224;-80
2022/12/05 07:15:51;;;;;;;19.23;12.17;;;;;;;9.72;56.97;98848.25;6978892;28;20238;-80
2022/12/05 07:19:12;;;;;;;18.10;11.13;;;;;;;9.25;57.01;98788.97;6977283;28;20236;-80
2022/12/05 07:22:37;;;;;;;19.67;12.03;;;;;;;9.75;57.13;98858.66;6977196;28;20207;-80
2022/12/05 07:25:59;;;;;;;21.70;12.50;;;;;;;9.73;56.86;98864.22;6974796;28;20223;-81
2022/12/05 07:29:21;;;;;;;19.03;12.50;;;;;;;9.43;57.96;98861.94;6995718;28;20716;-80
2022/12/05 07:32:42;;;;;;;18.27;11.27;;;;;;;9.81;56.24;98855.97;7005940;28;20737;-80
2022/12/05 07:36:07;;;;;;;15.03;10.30;;;;;;;9.68;56.33;98855.09;7003620;28;20215;-80
2022/12/05 07:39:29;;;;;;;16.63;11.50;;;;;;;9.60;56.43;98855.22;7003189;28;20219;-80
2022/12/05 07:42:52;;;;;;;16.40;10.50;;;;;;;9.58;56.05;98819.63;7001535;28;20210;-80
2022/12/05 07:46:13;;;;;;;19.13;12.03;;;;;;;9.17;56.89;98877.91;7004459;28;20223;-80
2022/12/05 07:49:35;;;;;;;20.20;12.10;;;;;;;9.29;56.26;98809.09;7005791;28;20370;-80
2022/12/05 07:52:57;;;;;;;17.73;11.27;;;;;;;9.70;56.26;98872.69;7006626;28;20243;-80
2022/12/05 07:56:20;;;;;;;16.37;10.80;;;;;;;9.46;56.82;98869.66;6997229;28;20713;-80
2022/12/05 07:59:42;;;;;;;17.40;11.47;;;;;;;9.40;56.89;98875.81;7002945;28;20820;-81
2022/12/05 08:03:04;;;;;;;18.27;11.77;;;;;;;9.42;56.36;98871.06;7004425;28;20284;-81
2022/12/05 08:06:27;;;;;;;17.03;11.23;;;;;;;9.88;56.67;98873.03;7003978;28;20225;-78
2022/12/05 08:09:49;;;;;;;17.90;11.03;;;;;;;9.68;56.63;98860.47;6994996;28;20227;-81
2022/12/05 08:13:11;;;;;;;17.87;12.10;;;;;;;9.81;56.82;98874.81;6978044;28;20734;-81
2022/12/05 08:16:33;;;;;;;15.43;11.00;;;;;;;9.89;56.70;98871.16;6991101;28;20246;-81
2022/12/05 08:19:55;;;;;;;16.27;11.63;;;;;;;10.12;56.53;98864.47;7005457;28;20704;-81
2022/12/05 08:23:17;;;;;;;17.37;11.63;;;;;;;10.31;56.48;98873.66;7005703;28;20214;-81
2022/12/05 08:26:39;;;;;;;14.73;10.43;;;;;;;10.40;54.83;98870.56;6983932;28;20273;-80
2022/12/05 08:30:02;;;;;;;15.67;11.10;;;;;;;10.14;55.26;98857.00;6979065;28;20594;-81
2022/12/05 08:33:23;;;;;;;17.87;10.97;;;;;;;10.46;54.61;98883.22;6979544;28;20208;-81
2022/12/05 08:36:45;;;;;;;14.67;10.47;;;;;;;10.40;54.98;98875.97;7005714;28;20203;-81
2022/12/05 08:40:08;;;;;;;17.23;10.30;;;;;;;10.28;54.84;98877.56;6995269;28;20353;-81
2022/12/05 08:43:31;;;;;;;15.37;10.83;;;;;;;10.51;54.56;98902.34;7002041;28;20694;-80
2022/12/05 08:46:53;;;;;;;13.73;9.97;;;;;;;10.31;54.41;98914.91;7021449;28;20275;-81
2022/12/05 08:50:15;;;;;;;14.30;9.67;;;;;;;10.50;54.87;98902.56;6991317;28;20270;-81
2022/12/05 08:53:38;;;;;;;13.30;8.93;;;;;;;10.62;54.80;98903.63;7012101;28;20229;-80
2022/12/05 08:56:59;;;;;;;11.40;8.47;;;;;;;10.51;54.36;98905.03;7006438;28;20226;-79
2022/12/05 09:00:22;;;;;;;14.07;9.60;;;;;;;10.46;55.03;98872.44;7012875;28;20241;-79
2022/12/05 09:03:46;;;;;;;12.10;8.73;;;;;;;10.22;55.95;98877.56;7032187;28;20199;-80
2022/12/05 09:07:08;;;;;;;11.40;8.40;;;;;;;10.93;55.51;98917.41;7037677;28;20682;-81
2022/12/05 09:10:49;;;;;;;12.20;8.37;;;;;;;11.01;55.21;98887.50;7042537;28;20276;-84
2022/12/05 09:14:10;;;;;;;15.23;10.27;;;;;;;11.24;54.06;98918.47;7038952;28;20206;-83
2022/12/05 09:17:32;;;;;;;11.23;8.07;;;;;;;11.13;53.64;98880.47;7038005;28;20277;-83
2022/12/05 09:20:55;;;;;;;10.63;8.03;;;;;;;11.46;54.28;98929.91;7013916;28;20265;-79
2022/12/05 09:24:16;;;;;;;10.80;7.60;;;;;;;11.53;52.22;98934.28;7010325;28;20253;-79
2022/12/05 09:27:38;;;;;;;10.43;7.53;;;;;;;11.01;53.35;98944.16;7004360;28;20213;-83
2022/12/05 09:31:01;;;;;;;11.07;7.77;;;;;;;10.91;54.66;98927.53;7012255;28;20209;-81
2022/12/05 09:34:24;;;;;;;9.27;7.10;;;;;;;11.04;53.89;98952.69;7007616;28;20225;-81
2022/12/05 09:37:47;;;;;;;9.43;7.50;;;;;;;11.17;53.07;98900.63;7010301;28;20271;-85
2022/12/05 09:41:20;;;;;;;9.17;6.90;;;;;;;11.00;52.24;98913.69;7010317;28;20231;-80
2022/12/05 09:44:46;;;;;;;9.83;7.83;;;;;;;11.41;52.61;98952.13;7007484;28;20222;-81
2022/12/05 09:48:11;;;;;;;9.00;6.70;;;;;;;10.94;52.17;98949.56;6992333;28;20236;-80
2022/12/05 09:51:33;;;;;;;9.87;7.00;;;;;;;10.91;52.14;98943.72;7008960;28;20237;-80
2022/12/05 09:54:57;;;;;;;8.57;6.73;;;;;;;11.43;51.37;98943.81;7008465;28;20258;-80
2022/12/05 09:58:26;;;;;;;9.37;7.03;;;;;;;11.47;51.33;98937.81;7008407;28;20700;-80
2022/12/05 10:01:53;;;;;;;9.03;6.70;;;;;;;11.62;51.43;98926.84;7008169;28;20192;-80
2022/12/05 10:05:19;;;;;;;10.37;7.27;;;;;;;11.79;51.08;98928.03;6998167;28;20249;-80
2022/12/05 10:08:53;;;;;;;9.10;6.20;;;;;;;11.85;50.49;98951.50;7008272;28;20260;-80
2022/12/05 10:12:22;;;;;;;7.37;6.40;;;;;;;11.67;51.63;98949.47;7008286;28;20196;-80
2022/12/05 10:15:47;;;;;;;9.07;6.43;;;;;;;11.30;51.31;98944.66;6987302;28;20596;-80
2022/12/05 10:19:12;;;;;;;8.47;6.67;;;;;;;10.89;52.44;98943.94;6979788;28;20240;-80
2022/12/05 10:22:39;;;;;;;9.80;7.60;;;;;;;10.64;53.38;98929.34;6991216;28;20283;-80
2022/12/05 10:26:06;;;;;;;8.57;6.70;;;;;;;10.49;54.28;98920.59;7004814;28;20251;-80
2022/12/05 10:29:31;;;;;;;8.93;6.73;;;;;;;10.94;52.91;98943.31;6980135;28;20301;-80
2022/12/05 10:32:55;;;;;;;6.60;5.90;;;;;;;11.50;52.06;98928.44;6996168;28;20199;-80
2022/12/05 10:36:16;;;;;;;7.60;6.57;;;;;;;11.63;51.61;98933.88;6978951;28;20220;-80
2022/12/05 10:39:38;;;;;;;8.60;6.97;;;;;;;11.20;52.63;98927.19;7002226;28;20260;-80
2022/12/05 10:43:00;;;;;;;15.67;11.17;;;;;;;10.86;54.30;98920.06;6995474;28;20226;-80
2022/12/05 10:46:23;;;;;;;12.97;9.33;;;;;;;11.24;53.28;98901.44;6979021;28;20587;-81
2022/12/05 10:49:45;;;;;;;12.73;9.90;;;;;;;11.66;53.14;98934.28;6983658;28;20249;-80
2022/12/05 10:53:08;;;;;;;15.30;10.00;;;;;;;11.46;53.68;98929.91;6978718;28;20209;-80
2022/12/05 10:56:40;;;;;;;10.93;8.77;;;;;;;10.76;54.69;98879.19;6999612;28;20252;-80
2022/12/05 11:00:10;;;;;;;12.17;8.77;;;;;;;11.69;53.69;98903.34;7000857;28;20249;-82
2022/12/05 11:03:35;;;;;;;17.83;13.30;;;;;;;11.44;54.68;98913.06;6989615;28;20688;-82
2022/12/05 11:06:59;;;;;;;15.37;10.33;;;;;;;11.19;55.17;98914.72;7005768;28;20335;-83
2022/12/05 11:10:22;;;;;;;14.63;9.67;;;;;;;11.66;55.03;98914.53;7006548;28;20198;-79
2022/12/05 11:13:51;;;;;;;12.60;9.07;;;;;;;12.26;53.63;98914.22;7008351;28;20209;-79
2022/12/05 11:17:46;;;;;;;13.83;8.60;;;;;;;12.25;52.74;98918.81;6997935;28;20238;-81
2022/12/05 11:21:14;;;;;;;11.93;8.07;;;;;;;11.86;51.78;98867.56;7021734;28;20206;-85
2022/12/05 11:24:38;;;;;;;11.73;8.47;;;;;;;11.89;53.08;98877.97;7005563;28;20220;-85
2022/12/05 11:28:01;;;;;;;10.67;7.70;;;;;;;12.26;52.26;98908.81;7003357;28;20239;-84
2022/12/05 11:31:27;;;;;;;13.67;11.13;;;;;;;12.43;52.01;98856.75;7040053;28;20197;-86
2022/12/05 11:34:53;;;;;;;11.10;8.13;;;;;;;12.63;50.61;98900.75;6989565;28;20595;-86
2022/12/05 11:38:17;;;;;;;11.07;8.70;;;;;;;13.34;49.64;98910.31;6989681;28;20225;-86
2022/12/05 11:41:48;;;;;;;11.27;9.20;;;;;;;13.33;49.92;98921.38;7012158;28;20211;-86
2022/12/05 11:45:17;;;;;;;9.50;8.47;;;;;;;13.21;50.09;98885.25;6994178;28;20232;-86
2022/12/05 11:48:49;;;;;;;10.03;8.23;;;;;;;13.38;48.40;98894.44;6995085;28;20217;-86
2022/12/05 11:52:18;;;;;;;12.30;8.60;;;;;;;13.26;50.06;98893.50;6992044;28;21382;-85
2022/12/05 11:55:43;;;;;;;12.43;9.80;;;;;;;12.41;50.89;98904.81;6999333;28;20203;-84
2022/12/05 11:59:25;;;;;;;13.77;8.30;;;;;;;12.15;52.34;98902.19;7000718;28;20221;-83
2022/12/05 12:07:30;;;;;;;10.67;8.30;;;;;;;12.27;52.63;98886.16;7012404;28;20229;-83
2022/12/05 12:15:42;;;;;;;9.53;7.37;;;;;;;12.81;50.04;98873.78;6998261;28;20212;-83
2022/12/05 12:19:15;;;;;;;11.03;8.33;;;;;;;12.53;50.70;98880.63;6998435;28;20309;-83
2022/12/05 12:23:01;;;;;;;10.33;8.50;;;;;;;12.61;51.29;98880.34;7015228;28;20216;-82
2022/12/05 12:26:44;;;;;;;9.33;8.33;;;;;;;12.60;51.68;98887.66;7012753;28;20236;-83
2022/12/05 12:30:15;;;;;;;10.97;8.20;;;;;;;12.17;52.30;98894.69;6988694;28;20225;-83
2022/12/05 12:33:45;;;;;;;9.23;7.97;;;;;;;12.38;51.52;98899.81;6987577;28;20250;-82
2022/12/05 12:37:13;;;;;;;11.37;8.57;;;;;;;12.59;51.37;98899.53;6999205;28;20200;-84
2022/12/05 12:40:41;;;;;;;14.93;8.00;;;;;;;12.60;51.77;98903.06;7002636;28;20192;-85
2022/12/05 12:44:12;;;;;;;10.37;7.97;;;;;;;12.33;51.78;98907.75;6995571;28;20233;-85
2022/12/05 12:47:42;;;;;;;12.87;10.20;;;;;;;12.37;51.96;98881.09;6997602;28;20239;-81
2022/12/05 12:51:05;;;;;;;15.17;13.40;;;;;;;12.82;51.43;98899.84;7001975;28;20205;-83
2022/12/05 12:54:45;;;;;;;13.90;9.80;;;;;;;12.50;51.34;98862.09;6985971;28;20210;-84
2022/12/05 12:58:14;;;;;;;9.03;7.73;;;;;;;11.96;52.71;98894.13;6998082;28;20225;-83
2022/12/05 13:01:42;;;;;;;10.53;8.00;;;;;;;12.09;52.66;98899.53;6989114;28;20201;-85
2022/12/05 13:05:07;;;;;;;15.90;11.37;;;;;;;12.53;51.96;98883.31;7001563;28;20229;-85
2022/12/05 13:08:34;;;;;;;11.83;9.50;;;;;;;12.72;51.52;98902.16;6987734;28;20317;-85
2022/12/05 13:11:56;;;;;;;11.93;9.43;;;;;;;12.60;51.24;98884.97;6987588;28;20213;-87
2022/12/05 13:15:20;;;;;;;13.57;11.50;;;;;;;12.67;52.18;98877.63;7024503;28;20226;-87
2022/12/05 13:18:43;;;;;;;12.27;9.37;;;;;;;13.08;49.62;98898.84;7042913;28;20224;-84
2022/12/05 13:22:10;;;;;;;13.10;8.80;;;;;;;12.53;50.98;98843.59;7045181;28;20205;-83
2022/12/05 13:25:40;;;;;;;10.67;8.23;;;;;;;13.00;50.81;98889.13;7043032;28;20221;-84
2022/12/05 13:29:37;;;;;;;11.00;9.03;;;;;;;12.80;50.67;98888.38;7043881;28;20232;-83
2022/12/05 13:44:54;;;;;;;12.77;10.93;;;;;;;12.31;52.05;98877.41;7003050;28;20197;-84
2022/12/05 13:53:00;;;;;;;13.87;11.00;;;;;;;12.45;52.38;98899.81;6992746;28;20202;-83
2022/12/05 13:56:31;;;;;;;12.30;9.50;;;;;;;12.32;52.05;98910.66;6992436;28;20273;-86
2022/12/05 14:00:21;;;;;;;12.13;9.03;;;;;;;12.23;52.79;98901.13;7003829;28;20237;-84
2022/12/05 14:04:06;;;;;;;11.53;9.67;;;;;;;12.15;52.99;98915.69;7019846;28;20216;-84
2022/12/05 14:07:48;;;;;;;14.23;10.10;;;;;;;12.12;53.30;98908.03;7019412;28;20228;-84
2022/12/05 14:11:11;;;;;;;18.10;15.17;;;;;;;12.22;53.04;98919.22;7019020;28;20206;-84
2022/12/05 14:15:00;;;;;;;10.70;9.27;;;;;;;12.30;52.59;98927.09;7019356;28;20209;-85
2022/12/05 14:18:28;;;;;;;12.30;9.93;;;;;;;12.32;52.82;98929.56;7013270;28;20225;-83
2022/12/05 14:21:57;;;;;;;13.57;10.40;;;;;;;12.42;52.72;98924.56;6986541;28;20195;-86
2022/12/05 14:25:42;;;;;;;12.50;9.07;;;;;;;11.92;53.21;98930.75;6989637;28;20253;-82
2022/12/05 14:29:18;;;;;;;12.53;8.87;;;;;;;12.11;53.10;98906.34;7009459;28;20221;-87
2022/12/05 14:33:06;;;;;;;12.50;8.97;;;;;;;12.12;53.39;98915.31;6993587;28;20280;-83
2022/12/05 14:36:59;;;;;;;13.43;9.43;;;;;;;11.46;53.91;98868.63;7019992;28;20209;-85
2022/12/05 14:40:48;;;;;;;13.07;9.20;;;;;;;11.68;53.70;98855.78;7019368;28;20270;-87
2022/12/05 14:44:19;;;;;;;11.93;8.50;;;;;;;11.67;53.45;98854.94;7008371;28;20366;-86
2022/12/05 14:48:03;;;;;;;11.73;9.03;;;;;;;11.63;54.62;98923.91;6988064;28;20234;-82
2022/12/05 14:56:16;;;;;;;13.93;10.10;;;;;;;11.05;56.54;98938.16;6989233;28;20219;-83
2022/12/05 14:59:45;;;;;;;14.10;9.50;;;;;;;11.50;55.82;98933.84;6999675;28;20223;-85
2022/12/05 15:03:16;;;;;;;17.80;10.63;;;;;;;11.60;55.43;98934.28;7018444;28;20197;-84
2022/12/05 15:06:46;;;;;;;14.60;9.90;;;;;;;11.39;55.74;98932.59;7017816;28;20210;-81
2022/12/05 15:10:14;;;;;;;17.10;11.10;;;;;;;11.28;56.32;98917.00;7014877;28;20239;-86
2022/12/05 15:13:36;;;;;;;12.93;9.43;;;;;;;11.42;55.45;98921.41;7015067;28;20186;-86
2022/12/05 15:16:59;;;;;;;12.77;9.03;;;;;;;11.25;55.90;98933.63;7014622;28;20205;-87
2022/12/05 15:20:39;;;;;;;12.23;9.33;;;;;;;11.00;55.41;98893.94;7014973;28;20201;-85
2022/12/05 15:24:05;;;;;;;10.17;8.57;;;;;;;10.63;55.32;98886.41;7018004;28;20250;-87
2022/12/05 15:27:27;;;;;;;11.50;8.93;;;;;;;11.21;55.54;98945.06;7018330;28;20229;-85
2022/12/05 15:34:46;;;;;;;12.67;9.50;;;;;;;11.36;55.74;98933.03;7012358;28;20276;-85
2022/12/05 15:38:15;;;;;;;13.67;9.60;;;;;;;11.24;55.07;98921.19;7016883;28;20237;-85
2022/12/05 15:41:38;;;;;;;13.57;9.57;;;;;;;11.09;55.92;98942.13;7018004;28;20209;-84
2022/12/05 15:45:23;;;;;;;12.87;10.27;;;;;;;10.95;56.09;98943.13;7014679;28;20202;-85
2022/12/05 15:48:44;;;;;;;13.00;10.23;;;;;;;10.91;56.00;98932.94;6984964;28;20650;-84
2022/12/05 15:52:25;;;;;;;13.03;9.80;;;;;;;10.65;56.71;98922.09;6982530;28;20746;-84
2022/12/05 15:55:48;;;;;;;15.50;13.03;;;;;;;11.11;55.48;98961.63;6982171;28;20690;-85
2022/12/05 15:59:13;;;;;;;15.20;11.40;;;;;;;10.80;56.44;98966.72;6995529;28;20232;-84
2022/12/05 16:02:44;;;;;;;14.53;11.50;;;;;;;10.98;56.45;98966.19;7014518;28;20210;-87
2022/12/05 16:06:12;;;;;;;17.03;12.03;;;;;;;11.00;55.41;98975.72;7007347;28;20701;-86
2022/12/05 16:09:42;;;;;;;14.93;11.87;;;;;;;11.02;55.34;98978.19;6995709;28;20235;-84
2022/12/05 16:13:05;;;;;;;16.27;10.07;;;;;;;10.96;55.10;98977.16;6997168;28;20220;-84
2022/12/05 16:16:29;;;;;;;13.60;10.70;;;;;;;10.11;55.28;98899.69;7005357;28;20251;-84
2022/12/05 16:19:51;;;;;;;15.87;11.07;;;;;;;10.45;55.99;98989.41;7005932;28;20224;-84
2022/12/05 16:23:24;;;;;;;14.10;10.80;;;;;;;9.62;58.16;99001.25;7005196;28;20562;-84
2022/12/05 16:26:56;;;;;;;16.83;11.83;;;;;;;9.20;59.38;99010.16;6995338;28;20257;-84
2022/12/05 16:30:20;;;;;;;20.50;12.30;;;;;;;9.27;59.70;99002.16;6979186;28;20192;-84
2022/12/05 16:33:41;;;;;;;16.83;11.23;;;;;;;9.80;58.27;99007.81;6984420;28;20616;-84
2022/12/05 16:37:05;;;;;;;14.10;10.67;;;;;;;9.58;58.97;98999.97;7006368;28;20186;-80
2022/12/05 16:40:26;;;;;;;18.50;12.67;;;;;;;9.66;58.82;98989.88;6993450;28;20206;-81